createdAt,value
2023-03-21T00:01:36.407Z,0.89
2023-03-21T00:04:02.724Z,0.78
2023-03-21T00:06:28.835Z,0.78
2023-03-21T00:08:54.937Z,0.81
2023-03-21T00:11:23.365Z,0.82
2023-03-21T00:13:49.477Z,0.74
2023-03-21T00:16:20.295Z,0.75
2023-03-21T00:18:57.368Z,0.73
2023-03-21T00:21:46.231Z,0.67
2023-03-21T00:24:10.045Z,0.69
2023-03-21T00:26:36.217Z,0.77
2023-03-21T00:29:02.347Z,0.84
2023-03-21T00:31:28.540Z,0.78
2023-03-21T00:33:54.661Z,0.66
2023-03-21T00:36:20.982Z,0.73
2023-03-21T00:38:47.117Z,0.76
2023-03-21T00:41:35.078Z,0.78
2023-03-21T00:43:59.284Z,0.78
2023-03-21T00:46:27.696Z,0.76
2023-03-21T00:48:56.181Z,0.98
2023-03-21T00:51:22.616Z,0.96
2023-03-21T00:53:48.712Z,0.77
2023-03-21T00:56:14.816Z,0.81
2023-03-21T00:58:40.971Z,0.94
2023-03-21T01:01:07.115Z,0.99
2023-03-21T01:03:33.210Z,0.85
2023-03-21T01:05:59.448Z,0.74
2023-03-21T01:08:31.188Z,0.78
2023-03-21T01:11:01.374Z,0.59
2023-03-21T01:13:27.493Z,0.72
2023-03-21T01:15:53.735Z,0.81
2023-03-21T01:18:19.874Z,0.75
2023-03-21T01:20:45.981Z,0.59
2023-03-21T01:23:12.110Z,0.67
2023-03-21T01:25:38.413Z,0.73
2023-03-21T01:28:04.639Z,0.81
2023-03-21T01:30:33.961Z,0.79
2023-03-21T01:33:02.977Z,0.62
2023-03-21T01:35:32.007Z,0.55
2023-03-21T01:38:03.523Z,0.81
2023-03-21T01:40:29.612Z,0.59
2023-03-21T01:42:55.717Z,0.67
2023-03-21T01:45:21.838Z,0.85
2023-03-21T01:47:48.018Z,0.81
2023-03-21T01:50:14.138Z,0.74
2023-03-21T01:52:40.236Z,0.73
2023-03-21T01:55:06.385Z,0.82
2023-03-21T01:57:40.987Z,0.85
2023-03-21T02:00:09.827Z,0.91
2023-03-21T02:02:35.931Z,0.76
2023-03-21T02:05:02.031Z,0.94
2023-03-21T02:07:28.313Z,0.86
2023-03-21T02:09:54.496Z,0.76
2023-03-21T02:12:20.593Z,0.85
2023-03-21T02:14:46.703Z,0.74
2023-03-21T02:17:12.795Z,0.63
2023-03-21T02:19:47.616Z,0.65
2023-03-21T02:22:18.694Z,0.70
2023-03-21T02:24:48.878Z,0.66
2023-03-21T02:27:20.841Z,0.82
2023-03-21T02:29:46.978Z,0.64
2023-03-21T02:32:22.772Z,0.59
2023-03-21T02:34:59.251Z,0.68
2023-03-21T02:37:36.694Z,0.75
2023-03-21T02:40:03.629Z,0.38
2023-03-21T02:42:29.747Z,0.50
2023-03-21T02:44:56.082Z,0.49
2023-03-21T02:47:22.197Z,0.41
2023-03-21T02:49:48.394Z,0.50
2023-03-21T02:52:18.807Z,0.42
2023-03-21T02:54:52.157Z,0.38
2023-03-21T02:57:18.293Z,0.51
2023-03-21T02:59:53.589Z,0.54
2023-03-21T03:02:21.745Z,0.49
2023-03-21T03:04:47.879Z,0.56
2023-03-21T03:07:14.003Z,0.60
2023-03-21T03:09:40.141Z,0.50
2023-03-21T03:12:06.241Z,0.65
2023-03-21T03:15:02.373Z,0.56
2023-03-21T03:17:18.531Z,0.75
2023-03-21T03:19:49.931Z,0.88
2023-03-21T03:22:16.780Z,0.86
2023-03-21T03:24:43.016Z,0.70
2023-03-21T03:27:09.125Z,0.63
2023-03-21T03:29:35.208Z,0.44
2023-03-21T03:32:01.325Z,0.41
2023-03-21T03:34:27.457Z,0.48
2023-03-21T03:36:53.597Z,0.63
2023-03-21T03:39:19.739Z,0.66
2023-03-21T03:42:05.950Z,0.40
2023-03-21T03:44:31.916Z,0.56
2023-03-21T03:46:58.037Z,0.61
2023-03-21T03:49:24.198Z,0.60
2023-03-21T03:51:50.637Z,0.59
2023-03-21T03:54:16.763Z,0.65
2023-03-21T03:56:42.854Z,0.71
2023-03-21T03:59:08.953Z,0.85
2023-03-21T04:01:35.120Z,0.73
2023-03-21T04:04:12.583Z,0.59
2023-03-21T04:06:39.244Z,0.52
2023-03-21T04:09:13.688Z,0.56
2023-03-21T04:11:45.129Z,0.74
2023-03-21T04:14:11.255Z,0.86
2023-03-21T04:16:37.371Z,0.71
2023-03-21T04:19:03.491Z,0.53
2023-03-21T04:21:29.589Z,0.41
2023-03-21T04:23:55.702Z,0.44
2023-03-21T04:26:21.787Z,0.33
2023-03-21T04:28:47.888Z,0.28
2023-03-21T04:31:25.147Z,0.32
2023-03-21T04:33:52.012Z,0.26
2023-03-21T04:36:18.148Z,0.36
2023-03-21T04:38:44.610Z,0.43
2023-03-21T04:41:10.705Z,0.36
2023-03-21T04:43:36.827Z,0.20
2023-03-21T04:46:02.938Z,0.55
2023-03-21T04:48:29.096Z,0.59
2023-03-21T04:50:55.219Z,0.64
2023-03-21T04:53:21.305Z,0.78
2023-03-21T04:55:47.750Z,0.79
2023-03-21T04:58:14.553Z,0.73
2023-03-21T05:00:40.653Z,0.69
2023-03-21T05:03:06.750Z,0.45
2023-03-21T05:05:32.860Z,0.48
2023-03-21T05:07:58.976Z,0.50
2023-03-21T05:10:25.078Z,0.66
2023-03-21T05:12:51.181Z,0.58
2023-03-21T05:15:17.303Z,0.62
2023-03-21T05:17:43.426Z,0.53
2023-03-21T05:20:09.530Z,0.50
2023-03-21T05:22:35.624Z,0.55
2023-03-21T05:25:01.752Z,0.69
2023-03-21T05:27:27.841Z,0.74
2023-03-21T05:29:53.946Z,0.81
2023-03-21T05:32:20.060Z,0.75
2023-03-21T05:34:46.167Z,0.93
2023-03-21T05:37:12.295Z,1.02
2023-03-21T05:39:38.418Z,1.08
2023-03-21T05:42:04.671Z,1.10
2023-03-21T05:44:30.758Z,1.14
2023-03-21T05:46:56.877Z,1.34
2023-03-21T05:49:23.031Z,1.31
2023-03-21T05:51:49.144Z,1.34
2023-03-21T05:54:15.253Z,1.35
2023-03-21T05:56:41.349Z,1.36
2023-03-21T05:59:07.492Z,1.29
2023-03-21T06:01:33.594Z,1.48
2023-03-21T06:03:59.734Z,1.57
2023-03-21T06:06:25.870Z,1.88
2023-03-21T06:08:51.998Z,1.92
2023-03-21T06:11:18.136Z,2.06
2023-03-21T06:13:44.266Z,2.36
2023-03-21T06:16:10.446Z,2.30
2023-03-21T06:18:36.615Z,2.37
2023-03-21T06:21:02.741Z,2.24
2023-03-21T06:23:28.870Z,2.33
2023-03-21T06:25:54.990Z,2.58
2023-03-21T06:28:21.114Z,2.60
2023-03-21T06:30:47.304Z,2.59
2023-03-21T06:33:13.450Z,2.65
2023-03-21T06:35:39.774Z,2.81
2023-03-21T06:38:06.013Z,2.86
2023-03-21T06:40:32.128Z,2.98
2023-03-21T06:42:58.264Z,2.91
2023-03-21T06:45:24.384Z,2.93
2023-03-21T06:47:50.526Z,3.05
2023-03-21T06:50:16.832Z,3.34
2023-03-21T06:52:42.930Z,3.57
2023-03-21T06:55:09.041Z,3.68
2023-03-21T06:57:35.166Z,3.63
2023-03-21T07:00:01.304Z,3.68
2023-03-21T07:02:27.507Z,3.69
2023-03-21T07:04:53.644Z,3.71
2023-03-21T07:07:19.987Z,3.85
2023-03-21T07:09:46.064Z,3.90
2023-03-21T07:12:12.151Z,3.87
2023-03-21T07:14:38.460Z,4.00
2023-03-21T07:17:04.556Z,4.31
2023-03-21T07:19:30.638Z,4.14
2023-03-21T07:21:56.751Z,4.41
2023-03-21T07:24:23.006Z,4.71
2023-03-21T07:26:49.108Z,4.98
2023-03-21T07:29:15.208Z,5.11
2023-03-21T07:31:41.372Z,5.32
2023-03-21T07:34:07.513Z,5.52
2023-03-21T07:36:33.626Z,5.57
2023-03-21T07:38:59.749Z,5.74
2023-03-21T07:41:25.867Z,5.90
2023-03-21T07:43:51.959Z,6.23
2023-03-21T07:46:18.095Z,6.31
2023-03-21T07:48:44.255Z,6.37
2023-03-21T07:51:10.384Z,6.15
2023-03-21T07:53:36.483Z,6.51
2023-03-21T07:56:02.588Z,5.98
2023-03-21T07:58:28.739Z,5.61
2023-03-21T08:00:54.868Z,5.90
2023-03-21T08:03:20.994Z,6.54
2023-03-21T08:05:47.150Z,6.55
2023-03-21T08:08:13.271Z,6.67
2023-03-21T08:10:39.406Z,6.81
2023-03-21T08:13:05.571Z,6.97
2023-03-21T08:15:31.712Z,7.14
2023-03-21T08:17:57.845Z,7.11
2023-03-21T08:20:23.956Z,7.13
2023-03-21T08:22:50.090Z,7.64
2023-03-21T08:25:16.188Z,7.57
2023-03-21T08:27:42.398Z,7.81
2023-03-21T08:30:08.647Z,7.90
2023-03-21T08:32:34.746Z,7.89
2023-03-21T08:35:00.853Z,7.54
2023-03-21T08:37:26.953Z,7.22
2023-03-21T08:39:53.144Z,6.90
2023-03-21T08:42:20.353Z,7.08
2023-03-21T08:44:46.458Z,7.18
2023-03-21T08:47:12.658Z,7.13
2023-03-21T08:49:38.776Z,7.26
2023-03-21T08:52:04.898Z,7.36
2023-03-21T08:54:31.003Z,7.24
2023-03-21T08:56:57.106Z,7.45
2023-03-21T08:59:23.197Z,7.51
2023-03-21T09:01:49.427Z,7.52
2023-03-21T09:04:15.727Z,7.93
2023-03-21T09:06:41.845Z,8.12
2023-03-21T09:09:07.946Z,7.99
2023-03-21T09:11:34.046Z,8.05
2023-03-21T09:14:00.205Z,8.09
2023-03-21T09:16:26.861Z,8.37
2023-03-21T09:18:53.029Z,8.25
2023-03-21T09:21:19.157Z,8.33
2023-03-21T09:23:45.260Z,8.24
2023-03-21T09:26:11.358Z,7.82
2023-03-21T09:28:37.607Z,7.95
2023-03-21T09:31:03.750Z,8.43
2023-03-21T09:33:29.847Z,8.33
2023-03-21T09:35:56.092Z,8.51
2023-03-21T09:38:22.237Z,8.67
2023-03-21T09:40:48.497Z,9.12
2023-03-21T09:43:14.636Z,9.36
2023-03-21T09:45:40.868Z,9.20
2023-03-21T09:48:07.052Z,8.87
2023-03-21T09:50:33.176Z,8.59
2023-03-21T09:52:59.297Z,8.73
2023-03-21T09:55:25.430Z,9.18
2023-03-21T09:57:51.541Z,9.33
2023-03-21T10:00:17.638Z,9.46
2023-03-21T10:02:43.729Z,9.53
2023-03-21T10:05:09.881Z,9.27
2023-03-21T10:07:36.333Z,9.18
2023-03-21T10:10:02.441Z,9.04
2023-03-21T10:12:28.536Z,9.06
2023-03-21T10:14:57.478Z,9.02
2023-03-21T10:17:23.754Z,8.94
2023-03-21T10:19:49.892Z,8.80
2023-03-21T10:22:16.113Z,8.48
2023-03-21T10:24:42.276Z,8.48
2023-03-21T10:27:08.399Z,8.81
2023-03-21T10:29:34.529Z,8.66
2023-03-21T10:32:00.714Z,8.70
2023-03-21T10:34:26.912Z,8.89
2023-03-21T10:36:53.037Z,8.50
2023-03-21T10:39:19.163Z,9.11
2023-03-21T10:41:45.355Z,8.76
2023-03-21T10:44:11.473Z,8.36
2023-03-21T10:46:37.794Z,8.65
2023-03-21T10:49:04.145Z,9.08
2023-03-21T10:51:30.390Z,8.55
2023-03-21T10:53:56.514Z,8.88
2023-03-21T10:56:22.609Z,9.15
2023-03-21T10:58:48.842Z,8.90
2023-03-21T11:01:15.062Z,9.13
2023-03-21T11:03:41.230Z,8.94
2023-03-21T11:06:07.421Z,9.55
2023-03-21T11:08:33.549Z,9.58
2023-03-21T11:10:59.703Z,9.64
2023-03-21T11:13:25.796Z,9.91
2023-03-21T11:15:51.899Z,10.45
2023-03-21T11:18:18.056Z,10.31
2023-03-21T11:20:44.172Z,10.05
2023-03-21T11:23:10.280Z,9.83
2023-03-21T11:25:36.724Z,9.72
2023-03-21T11:28:03.033Z,9.67
2023-03-21T11:30:29.221Z,9.69
2023-03-21T11:32:55.355Z,10.14
2023-03-21T11:35:21.466Z,10.15
2023-03-21T11:37:47.632Z,10.37
2023-03-21T11:40:13.817Z,10.60
2023-03-21T11:42:39.911Z,10.92
2023-03-21T11:45:06.023Z,11.23
2023-03-21T11:47:32.141Z,10.76
2023-03-21T11:50:04.550Z,11.10
2023-03-21T11:52:32.477Z,11.15
2023-03-21T11:54:58.658Z,11.59
2023-03-21T11:57:24.766Z,11.65
2023-03-21T11:59:50.871Z,12.04
2023-03-21T12:02:17.249Z,11.78
2023-03-21T12:04:43.634Z,12.09
2023-03-21T12:07:09.826Z,12.04
2023-03-21T12:09:35.945Z,11.54
2023-03-21T12:12:02.102Z,11.16
2023-03-21T12:14:28.205Z,11.36
2023-03-21T12:16:54.307Z,11.07
2023-03-21T12:19:20.418Z,11.38
2023-03-21T12:21:46.576Z,11.73
2023-03-21T12:24:12.677Z,11.52
2023-03-21T12:26:38.783Z,12.26
2023-03-21T12:29:04.908Z,12.19
2023-03-21T12:31:31.086Z,11.85
2023-03-21T12:33:57.192Z,12.18
2023-03-21T12:36:23.285Z,12.81
2023-03-21T12:38:49.406Z,12.23
2023-03-21T12:41:15.654Z,12.49
2023-03-21T12:43:42.071Z,12.05
2023-03-21T12:46:08.245Z,11.67
2023-03-21T12:48:34.463Z,12.17
2023-03-21T12:51:00.559Z,12.31
2023-03-21T12:53:26.683Z,11.70
2023-03-21T12:55:52.841Z,12.20
2023-03-21T12:58:18.971Z,11.86
2023-03-21T13:00:45.239Z,11.98
2023-03-21T13:03:11.709Z,12.04
2023-03-21T13:05:37.839Z,11.65
2023-03-21T13:08:03.944Z,11.35
2023-03-21T13:10:30.047Z,11.25
2023-03-21T13:12:56.201Z,11.30
2023-03-21T13:15:24.399Z,11.19
2023-03-21T13:17:50.709Z,11.36
2023-03-21T13:20:16.808Z,11.53
2023-03-21T13:22:42.944Z,11.82
2023-03-21T13:25:09.376Z,11.85
2023-03-21T13:27:35.501Z,12.32
2023-03-21T13:30:01.684Z,11.74
2023-03-21T13:32:27.940Z,11.55
2023-03-21T13:34:54.131Z,11.38
2023-03-21T13:37:20.271Z,11.69
2023-03-21T13:39:46.499Z,11.30
2023-03-21T13:42:12.621Z,11.93
2023-03-21T13:44:38.753Z,11.96
2023-03-21T13:47:04.847Z,11.88
2023-03-21T13:49:30.956Z,11.85
2023-03-21T13:51:57.105Z,11.49
2023-03-21T13:54:23.233Z,12.07
2023-03-21T13:56:49.340Z,12.03
2023-03-21T13:59:15.431Z,11.83
2023-03-21T14:01:41.620Z,11.85
2023-03-21T14:04:07.958Z,11.67
2023-03-21T14:06:34.071Z,11.72
2023-03-21T14:09:00.168Z,11.75
2023-03-21T14:11:26.322Z,12.00
2023-03-21T14:13:52.407Z,12.19
2023-03-21T14:16:18.560Z,11.84
2023-03-21T14:19:00.068Z,11.64
2023-03-21T14:21:26.238Z,11.59
2023-03-21T14:23:52.352Z,11.43
2023-03-21T14:26:18.449Z,11.12
2023-03-21T14:28:44.547Z,11.02
2023-03-21T14:31:10.691Z,11.09
2023-03-21T14:33:36.844Z,11.05
2023-03-21T14:36:03.020Z,11.24
2023-03-21T14:38:29.157Z,11.62
2023-03-21T14:40:55.303Z,11.27
2023-03-21T14:43:21.460Z,11.33
2023-03-21T14:45:47.590Z,11.64
2023-03-21T14:48:13.756Z,11.92
2023-03-21T14:50:39.961Z,11.57
2023-03-21T14:53:06.208Z,11.46
2023-03-21T14:55:32.699Z,11.62
2023-03-21T14:57:58.860Z,11.68
2023-03-21T15:00:25.094Z,11.82
2023-03-21T15:02:51.288Z,11.24
2023-03-21T15:05:17.481Z,11.24
2023-03-21T15:07:43.639Z,11.21
2023-03-21T15:10:09.727Z,11.43
2023-03-21T15:12:35.896Z,11.47
2023-03-21T15:15:01.999Z,11.47
2023-03-21T15:17:28.435Z,11.20
2023-03-21T15:19:54.555Z,11.17
2023-03-21T15:22:20.687Z,11.15
2023-03-21T15:24:46.814Z,10.79
2023-03-21T15:27:12.945Z,10.83
2023-03-21T15:29:39.050Z,11.03
2023-03-21T15:32:05.174Z,11.28
2023-03-21T15:34:31.296Z,10.94
2023-03-21T15:36:57.421Z,10.90
2023-03-21T15:39:23.554Z,11.01
2023-03-21T15:41:49.671Z,11.34
2023-03-21T15:44:16.103Z,11.04
2023-03-21T15:46:42.345Z,11.38
2023-03-21T15:49:08.683Z,11.66
2023-03-21T15:51:34.801Z,12.00
2023-03-21T15:54:00.926Z,12.20
2023-03-21T15:56:27.036Z,12.36
2023-03-21T15:58:53.183Z,12.60
2023-03-21T16:01:19.312Z,11.89
2023-03-21T16:03:45.434Z,12.22
2023-03-21T16:06:11.527Z,12.92
2023-03-21T16:08:37.635Z,13.05
2023-03-21T16:11:03.805Z,13.13
2023-03-21T16:13:30.029Z,13.15
2023-03-21T16:15:56.151Z,12.90
2023-03-21T16:18:22.283Z,13.00
2023-03-21T16:20:48.392Z,12.96
2023-03-21T16:23:14.507Z,12.57
2023-03-21T16:25:40.794Z,12.52
2023-03-21T16:28:07.067Z,12.80
2023-03-21T16:30:33.157Z,12.61
2023-03-21T16:32:59.255Z,12.51
2023-03-21T16:35:25.421Z,12.31
2023-03-21T16:37:51.615Z,12.28
2023-03-21T16:40:17.724Z,12.21
2023-03-21T16:42:43.883Z,11.88
2023-03-21T16:45:10.042Z,11.72
2023-03-21T16:47:36.131Z,11.39
2023-03-21T16:50:02.231Z,11.20
2023-03-21T16:52:28.537Z,11.19
2023-03-21T16:54:54.640Z,11.14
2023-03-21T16:57:20.769Z,11.02
2023-03-21T16:59:46.856Z,10.85
2023-03-21T17:02:13.262Z,10.48
2023-03-21T17:04:39.717Z,10.44
2023-03-21T17:07:05.810Z,10.38
2023-03-21T17:09:31.909Z,10.33
2023-03-21T17:11:58.025Z,10.12
2023-03-21T17:14:24.125Z,10.02
2023-03-21T17:16:50.282Z,9.73
2023-03-21T17:19:16.403Z,9.69
2023-03-21T17:21:42.520Z,9.60
2023-03-21T17:24:08.616Z,9.46
2023-03-21T17:26:34.738Z,9.31
2023-03-21T17:29:00.998Z,9.15
2023-03-21T17:31:27.193Z,9.07
2023-03-21T17:33:53.357Z,9.15
2023-03-21T17:36:19.463Z,9.07
2023-03-21T17:38:45.567Z,8.93
2023-03-21T17:41:11.669Z,8.98
2023-03-21T17:43:37.779Z,8.84
2023-03-21T17:46:03.920Z,8.62
2023-03-21T17:48:30.070Z,8.70
2023-03-21T17:50:56.485Z,8.51
2023-03-21T17:53:22.616Z,8.33
2023-03-21T17:55:48.732Z,8.06
2023-03-21T17:58:14.853Z,7.78
2023-03-21T18:00:41.093Z,7.95
2023-03-21T18:03:07.297Z,7.88
2023-03-21T18:05:33.415Z,7.84
2023-03-21T18:08:10.324Z,7.78
2023-03-21T18:10:38.416Z,7.65
2023-03-21T18:13:04.700Z,7.28
2023-03-21T18:15:31.152Z,7.37
2023-03-21T18:17:57.374Z,7.46
2023-03-21T18:20:23.723Z,7.21
2023-03-21T18:22:50.313Z,7.02
2023-03-21T18:25:16.422Z,7.15
2023-03-21T18:28:06.866Z,7.08
2023-03-21T18:30:50.042Z,7.08
2023-03-21T18:33:14.861Z,6.99
2023-03-21T18:35:41.085Z,6.95
2023-03-21T18:38:07.249Z,6.87
2023-03-21T18:40:33.406Z,6.74
2023-03-21T18:43:50.003Z,6.72
2023-03-21T18:45:45.766Z,6.46
2023-03-21T18:48:11.997Z,6.38
2023-03-21T18:50:38.585Z,6.35
2023-03-21T18:53:04.816Z,6.37
2023-03-21T18:55:45.364Z,6.44
2023-03-21T18:58:12.835Z,6.39
2023-03-21T19:00:39.245Z,6.59
2023-03-21T19:03:18.865Z,6.40
2023-03-21T19:05:47.482Z,6.19
2023-03-21T19:08:13.582Z,6.18
2023-03-21T19:10:40.048Z,6.33
2023-03-21T19:13:06.308Z,6.30
2023-03-21T19:15:32.411Z,6.29
2023-03-21T19:20:44.695Z,6.17
2023-03-21T19:23:10.965Z,6.16
2023-03-21T19:25:37.151Z,6.17
2023-03-21T19:28:03.317Z,6.04
2023-03-21T19:30:29.442Z,6.16
2023-03-21T19:32:55.534Z,5.98
2023-03-21T19:35:21.843Z,6.10
2023-03-21T19:37:48.071Z,5.95
2023-03-21T19:40:14.170Z,5.87
2023-03-21T19:42:40.319Z,5.87
2023-03-21T19:45:06.415Z,5.80
2023-03-21T19:47:32.811Z,5.84
2023-03-21T19:52:45.161Z,6.17
2023-03-21T19:55:11.315Z,6.37
2023-03-21T19:57:37.433Z,6.22
2023-03-21T20:00:03.551Z,6.09
2023-03-21T20:02:37.363Z,6.00
2023-03-21T20:05:03.758Z,5.84
2023-03-21T20:07:29.924Z,5.90
2023-03-21T20:09:57.400Z,5.99
2023-03-21T20:12:23.665Z,5.75
2023-03-21T20:14:53.789Z,5.63
2023-03-21T20:17:24.287Z,5.87
2023-03-21T20:19:50.469Z,5.93
2023-03-21T20:22:24.442Z,5.69
2023-03-21T20:24:57.218Z,5.43
2023-03-21T20:27:24.357Z,5.27
2023-03-21T20:30:09.484Z,5.27
2023-03-21T20:32:36.066Z,5.30
2023-03-21T20:35:16.838Z,5.28
2023-03-21T20:37:46.207Z,4.99
2023-03-21T20:40:12.318Z,5.05
2023-03-21T20:42:38.808Z,5.24
2023-03-21T20:45:05.026Z,5.43
2023-03-21T20:47:31.153Z,5.36
2023-03-21T20:49:57.265Z,5.05
2023-03-21T20:55:09.585Z,4.80
2023-03-21T20:57:38.632Z,4.92
2023-03-21T21:00:05.106Z,4.89
2023-03-21T21:02:31.294Z,4.91
2023-03-21T21:05:24.272Z,4.83
2023-03-21T21:07:43.503Z,4.75
2023-03-21T21:10:09.881Z,4.83
2023-03-21T21:12:35.966Z,4.66
2023-03-21T21:15:02.082Z,4.93
2023-03-21T21:17:57.889Z,4.77
2023-03-21T21:20:14.268Z,4.70
2023-03-21T21:22:42.868Z,4.71
2023-03-21T21:25:11.894Z,4.50
2023-03-21T21:27:37.982Z,4.41
2023-03-21T21:30:04.102Z,4.31
2023-03-21T21:32:30.265Z,4.21
2023-03-21T21:34:56.351Z,4.02
2023-03-21T21:37:22.455Z,4.06
2023-03-21T21:39:48.552Z,4.00
2023-03-21T21:42:14.663Z,4.10
2023-03-21T21:44:40.747Z,4.23
2023-03-21T21:47:06.840Z,4.14
2023-03-21T21:49:32.975Z,3.96
2023-03-21T21:51:59.082Z,3.99
2023-03-21T21:54:25.173Z,4.18
2023-03-21T21:56:51.356Z,4.16
2023-03-21T21:59:17.473Z,4.03
2023-03-21T22:01:43.609Z,3.88
2023-03-21T22:04:09.724Z,4.09
2023-03-21T22:06:35.821Z,4.02
2023-03-21T22:09:01.954Z,3.98
2023-03-21T22:11:28.069Z,3.97
2023-03-21T22:13:54.187Z,3.88
2023-03-21T22:16:20.299Z,3.93
2023-03-21T22:18:46.406Z,3.96
2023-03-21T22:21:12.498Z,3.82
2023-03-21T22:23:38.609Z,3.74
2023-03-21T22:26:04.882Z,3.79
2023-03-21T22:28:31.018Z,3.79
2023-03-21T22:30:57.117Z,3.65
2023-03-21T22:33:23.220Z,3.72
2023-03-21T22:35:49.331Z,4.11
2023-03-21T22:38:15.457Z,4.25
2023-03-21T22:40:42.032Z,4.11
2023-03-21T22:43:08.979Z,4.09
2023-03-21T22:45:35.117Z,4.09
2023-03-21T22:48:01.339Z,4.12
2023-03-21T22:50:27.475Z,4.23
2023-03-21T22:52:53.602Z,4.07
2023-03-21T22:55:19.730Z,3.99
2023-03-21T22:57:45.848Z,3.89
2023-03-21T23:00:11.972Z,3.80
2023-03-21T23:02:38.110Z,3.69
2023-03-21T23:05:04.232Z,3.61
2023-03-21T23:07:30.379Z,3.67
2023-03-21T23:09:56.512Z,3.64
2023-03-21T23:12:22.666Z,3.70
2023-03-21T23:14:48.812Z,3.60
2023-03-21T23:17:14.921Z,3.40
2023-03-21T23:19:41.289Z,3.45
2023-03-21T23:22:07.518Z,3.35
2023-03-21T23:24:33.643Z,3.20
2023-03-21T23:26:59.755Z,3.43
2023-03-21T23:29:25.913Z,3.46
2023-03-21T23:31:52.032Z,3.34
2023-03-21T23:34:18.168Z,3.51
2023-03-21T23:36:44.275Z,3.43
2023-03-21T23:39:10.405Z,3.34
2023-03-21T23:41:36.549Z,3.12
2023-03-21T23:44:02.909Z,3.08
2023-03-21T23:46:29.050Z,2.98
2023-03-21T23:48:55.201Z,2.83
2023-03-21T23:51:21.296Z,2.93
2023-03-21T23:53:47.407Z,2.94
2023-03-21T23:56:13.521Z,3.00
2023-03-21T23:58:39.655Z,3.03
